sensor_id;sensor_type;location;lat;lon;timestamp;temperature;humidity
11047;DHT22;5576;50.008;10.596;2023-06-24T00:01:28;15.80;99.90
11047;DHT22;5576;50.008;10.596;2023-06-24T00:03:54;15.80;99.90
11047;DHT22;5576;50.008;10.596;2023-06-24T00:06:20;15.90;99.90
11047;DHT22;5576;50.008;10.596;2023-06-24T00:08:48;15.90;99.90
11047;DHT22;5576;50.008;10.596;2023-06-24T00:11:15;15.70;99.90
11047;DHT22;5576;50.008;10.596;2023-06-24T00:13:41;15.80;99.90
11047;DHT22;5576;50.008;10.596;2023-06-24T00:16:07;15.80;99.90
11047;DHT22;5576;50.008;10.596;2023-06-24T00:18:34;15.80;99.90
11047;DHT22;5576;50.008;10.596;2023-06-24T00:21:00;15.70;99.90
11047;DHT22;5576;50.008;10.596;2023-06-24T00:23:28;15.80;99.90
11047;DHT22;5576;50.008;10.596;2023-06-24T00:25:54;15.90;99.90
11047;DHT22;5576;50.008;10.596;2023-06-24T00:28:21;15.80;99.90
11047;DHT22;5576;50.008;10.596;2023-06-24T00:30:48;14.70;99.90
11047;DHT22;5576;50.008;10.596;2023-06-24T00:33:14;15.70;99.90
11047;DHT22;5576;50.008;10.596;2023-06-24T00:35:40;15.70;99.90
11047;DHT22;5576;50.008;10.596;2023-06-24T00:38:07;13.10;99.90
11047;DHT22;5576;50.008;10.596;2023-06-24T00:40:33;15.70;99.90
11047;DHT22;5576;50.008;10.596;2023-06-24T00:43:00;15.70;99.90
11047;DHT22;5576;50.008;10.596;2023-06-24T00:45:27;15.60;99.90
11047;DHT22;5576;50.008;10.596;2023-06-24T00:47:53;13.40;99.90
11047;DHT22;5576;50.008;10.596;2023-06-24T00:50:22;15.70;99.90
11047;DHT22;5576;50.008;10.596;2023-06-24T00:52:48;15.60;99.90
11047;DHT22;5576;50.008;10.596;2023-06-24T00:55:16;15.60;99.90
11047;DHT22;5576;50.008;10.596;2023-06-24T00:57:44;15.70;99.90
11047;DHT22;5576;50.008;10.596;2023-06-24T01:00:11;15.60;99.90
11047;DHT22;5576;50.008;10.596;2023-06-24T01:02:41;15.80;99.90
11047;DHT22;5576;50.008;10.596;2023-06-24T01:05:08;15.70;99.90
11047;DHT22;5576;50.008;10.596;2023-06-24T01:07:35;15.60;99.90
11047;DHT22;5576;50.008;10.596;2023-06-24T01:10:04;15.60;99.90
11047;DHT22;5576;50.008;10.596;2023-06-24T01:12:40;15.60;99.90
11047;DHT22;5576;50.008;10.596;2023-06-24T01:15:08;15.40;99.90
11047;DHT22;5576;50.008;10.596;2023-06-24T01:17:42;15.40;99.90
11047;DHT22;5576;50.008;10.596;2023-06-24T01:20:20;15.40;99.90
11047;DHT22;5576;50.008;10.596;2023-06-24T01:26:07;15.20;99.90
11047;DHT22;5576;50.008;10.596;2023-06-24T01:31:48;15.10;99.90
11047;DHT22;5576;50.008;10.596;2023-06-24T01:37:05;15.90;99.90
11047;DHT22;5576;50.008;10.596;2023-06-24T01:39:39;13.80;99.90
11047;DHT22;5576;50.008;10.596;2023-06-24T01:42:10;17.90;99.90
11047;DHT22;5576;50.008;10.596;2023-06-24T01:44:39;15.20;99.90
11047;DHT22;5576;50.008;10.596;2023-06-24T01:47:06;15.30;99.90
11047;DHT22;5576;50.008;10.596;2023-06-24T01:49:39;15.30;99.90
11047;DHT22;5576;50.008;10.596;2023-06-24T01:52:08;15.30;99.90
11047;DHT22;5576;50.008;10.596;2023-06-24T01:54:35;15.20;99.90
11047;DHT22;5576;50.008;10.596;2023-06-24T01:57:03;15.20;99.90
11047;DHT22;5576;50.008;10.596;2023-06-24T01:59:31;15.10;99.90
11047;DHT22;5576;50.008;10.596;2023-06-24T02:02:00;15.10;99.90
11047;DHT22;5576;50.008;10.596;2023-06-24T02:04:28;15.20;99.90
11047;DHT22;5576;50.008;10.596;2023-06-24T02:06:59;15.10;99.90
11047;DHT22;5576;50.008;10.596;2023-06-24T02:09:26;15.20;99.90
11047;DHT22;5576;50.008;10.596;2023-06-24T02:11:56;15.10;99.90
11047;DHT22;5576;50.008;10.596;2023-06-24T02:14:22;15.00;99.90
11047;DHT22;5576;50.008;10.596;2023-06-24T02:16:50;12.30;99.90
11047;DHT22;5576;50.008;10.596;2023-06-24T02:19:23;14.80;99.90
11047;DHT22;5576;50.008;10.596;2023-06-24T02:21:51;14.80;99.90
11047;DHT22;5576;50.008;10.596;2023-06-24T02:24:19;14.90;99.90
11047;DHT22;5576;50.008;10.596;2023-06-24T02:26:45;14.90;99.90
11047;DHT22;5576;50.008;10.596;2023-06-24T02:29:12;15.00;99.90
11047;DHT22;5576;50.008;10.596;2023-06-24T02:31:39;15.00;99.90
11047;DHT22;5576;50.008;10.596;2023-06-24T02:34:05;14.90;99.90
11047;DHT22;5576;50.008;10.596;2023-06-24T02:36:31;14.80;99.90
11047;DHT22;5576;50.008;10.596;2023-06-24T02:38:56;14.80;99.90
11047;DHT22;5576;50.008;10.596;2023-06-24T02:41:22;14.80;99.90
11047;DHT22;5576;50.008;10.596;2023-06-24T02:43:49;14.60;99.90
11047;DHT22;5576;50.008;10.596;2023-06-24T02:46:15;14.60;99.90
11047;DHT22;5576;50.008;10.596;2023-06-24T02:48:43;13.50;99.90
11047;DHT22;5576;50.008;10.596;2023-06-24T02:51:10;14.60;99.90
11047;DHT22;5576;50.008;10.596;2023-06-24T02:53:38;14.40;99.90
11047;DHT22;5576;50.008;10.596;2023-06-24T02:56:05;13.80;99.90
11047;DHT22;5576;50.008;10.596;2023-06-24T02:58:36;14.40;99.90
11047;DHT22;5576;50.008;10.596;2023-06-24T03:01:08;18.00;99.90
11047;DHT22;5576;50.008;10.596;2023-06-24T03:03:53;14.40;99.90
11047;DHT22;5576;50.008;10.596;2023-06-24T03:06:20;14.50;99.90
11047;DHT22;5576;50.008;10.596;2023-06-24T03:08:48;14.40;99.90
11047;DHT22;5576;50.008;10.596;2023-06-24T03:11:16;14.40;99.90
11047;DHT22;5576;50.008;10.596;2023-06-24T03:13:42;14.20;99.90
11047;DHT22;5576;50.008;10.596;2023-06-24T03:16:14;14.20;99.90
11047;DHT22;5576;50.008;10.596;2023-06-24T03:18:49;14.20;99.90
11047;DHT22;5576;50.008;10.596;2023-06-24T03:21:15;14.30;99.90
11047;DHT22;5576;50.008;10.596;2023-06-24T03:23:42;14.40;99.90
11047;DHT22;5576;50.008;10.596;2023-06-24T03:26:11;14.40;99.90
11047;DHT22;5576;50.008;10.596;2023-06-24T03:28:37;11.60;99.90
11047;DHT22;5576;50.008;10.596;2023-06-24T03:31:10;14.40;99.90
11047;DHT22;5576;50.008;10.596;2023-06-24T03:33:37;14.20;99.90
11047;DHT22;5576;50.008;10.596;2023-06-24T03:36:04;14.10;99.90
11047;DHT22;5576;50.008;10.596;2023-06-24T03:38:33;14.10;99.90
11047;DHT22;5576;50.008;10.596;2023-06-24T03:40:58;14.10;99.90
11047;DHT22;5576;50.008;10.596;2023-06-24T03:43:24;14.10;99.90
11047;DHT22;5576;50.008;10.596;2023-06-24T03:45:50;14.10;99.90
11047;DHT22;5576;50.008;10.596;2023-06-24T03:48:17;14.20;99.90
11047;DHT22;5576;50.008;10.596;2023-06-24T03:50:43;14.20;99.90
11047;DHT22;5576;50.008;10.596;2023-06-24T03:53:08;14.20;99.90
11047;DHT22;5576;50.008;10.596;2023-06-24T03:55:35;17.10;99.90
11047;DHT22;5576;50.008;10.596;2023-06-24T03:58:00;14.50;99.90
11047;DHT22;5576;50.008;10.596;2023-06-24T04:00:27;14.40;99.90
11047;DHT22;5576;50.008;10.596;2023-06-24T04:02:52;14.50;99.90
11047;DHT22;5576;50.008;10.596;2023-06-24T04:05:19;14.50;99.90
11047;DHT22;5576;50.008;10.596;2023-06-24T04:07:45;14.50;99.90
11047;DHT22;5576;50.008;10.596;2023-06-24T04:10:13;14.50;99.90
11047;DHT22;5576;50.008;10.596;2023-06-24T04:12:39;18.10;99.90
11047;DHT22;5576;50.008;10.596;2023-06-24T04:15:06;14.40;99.90
11047;DHT22;5576;50.008;10.596;2023-06-24T04:17:33;12.70;99.90
11047;DHT22;5576;50.008;10.596;2023-06-24T04:19:59;14.40;99.90
11047;DHT22;5576;50.008;10.596;2023-06-24T04:22:25;14.40;99.90
11047;DHT22;5576;50.008;10.596;2023-06-24T04:24:56;14.50;99.90
11047;DHT22;5576;50.008;10.596;2023-06-24T04:27:23;14.50;99.90
11047;DHT22;5576;50.008;10.596;2023-06-24T04:29:49;14.60;99.90
11047;DHT22;5576;50.008;10.596;2023-06-24T04:32:14;14.50;99.90
11047;DHT22;5576;50.008;10.596;2023-06-24T04:34:40;14.60;99.90
11047;DHT22;5576;50.008;10.596;2023-06-24T04:37:06;14.60;99.90
11047;DHT22;5576;50.008;10.596;2023-06-24T04:39:32;13.90;99.90
11047;DHT22;5576;50.008;10.596;2023-06-24T04:41:58;14.70;99.90
11047;DHT22;5576;50.008;10.596;2023-06-24T04:44:24;14.60;99.90
11047;DHT22;5576;50.008;10.596;2023-06-24T04:46:49;14.60;99.90
11047;DHT22;5576;50.008;10.596;2023-06-24T04:49:17;14.60;99.90
11047;DHT22;5576;50.008;10.596;2023-06-24T04:51:43;14.50;99.90
11047;DHT22;5576;50.008;10.596;2023-06-24T04:54:09;16.30;99.90
11047;DHT22;5576;50.008;10.596;2023-06-24T04:56:34;14.70;99.90
11047;DHT22;5576;50.008;10.596;2023-06-24T04:59:01;14.80;99.90
11047;DHT22;5576;50.008;10.596;2023-06-24T05:01:26;11.50;99.90
11047;DHT22;5576;50.008;10.596;2023-06-24T05:03:52;16.20;99.90
11047;DHT22;5576;50.008;10.596;2023-06-24T05:06:18;14.70;99.90
11047;DHT22;5576;50.008;10.596;2023-06-24T05:08:43;15.60;99.90
11047;DHT22;5576;50.008;10.596;2023-06-24T05:11:09;14.70;99.90
11047;DHT22;5576;50.008;10.596;2023-06-24T05:13:35;14.50;99.90
11047;DHT22;5576;50.008;10.596;2023-06-24T05:16:00;15.90;99.90
11047;DHT22;5576;50.008;10.596;2023-06-24T05:18:26;14.40;99.90
11047;DHT22;5576;50.008;10.596;2023-06-24T05:20:52;14.60;99.90
11047;DHT22;5576;50.008;10.596;2023-06-24T05:23:18;14.70;99.90
11047;DHT22;5576;50.008;10.596;2023-06-24T05:25:43;14.80;99.90
11047;DHT22;5576;50.008;10.596;2023-06-24T05:28:09;14.90;99.90
11047;DHT22;5576;50.008;10.596;2023-06-24T05:30:35;15.10;99.90
11047;DHT22;5576;50.008;10.596;2023-06-24T05:33:00;14.00;99.90
11047;DHT22;5576;50.008;10.596;2023-06-24T05:35:26;15.30;99.90
11047;DHT22;5576;50.008;10.596;2023-06-24T05:37:52;15.40;99.90
11047;DHT22;5576;50.008;10.596;2023-06-24T05:40:18;15.40;99.90
11047;DHT22;5576;50.008;10.596;2023-06-24T05:42:43;18.40;99.90
11047;DHT22;5576;50.008;10.596;2023-06-24T05:45:09;15.70;99.90
11047;DHT22;5576;50.008;10.596;2023-06-24T05:47:36;15.80;99.90
11047;DHT22;5576;50.008;10.596;2023-06-24T05:50:02;15.90;99.90
11047;DHT22;5576;50.008;10.596;2023-06-24T05:52:28;14.80;99.90
11047;DHT22;5576;50.008;10.596;2023-06-24T05:54:54;16.10;99.90
11047;DHT22;5576;50.008;10.596;2023-06-24T05:57:20;16.10;99.90
11047;DHT22;5576;50.008;10.596;2023-06-24T05:59:46;16.20;99.90
11047;DHT22;5576;50.008;10.596;2023-06-24T06:02:11;16.20;99.90
11047;DHT22;5576;50.008;10.596;2023-06-24T06:04:38;16.30;99.90
11047;DHT22;5576;50.008;10.596;2023-06-24T06:07:04;16.40;99.90
11047;DHT22;5576;50.008;10.596;2023-06-24T06:09:30;16.50;99.90
11047;DHT22;5576;50.008;10.596;2023-06-24T06:11:56;16.60;99.90
11047;DHT22;5576;50.008;10.596;2023-06-24T06:14:21;16.60;99.90
11047;DHT22;5576;50.008;10.596;2023-06-24T06:16:47;16.60;99.90
11047;DHT22;5576;50.008;10.596;2023-06-24T06:19:13;16.50;99.90
11047;DHT22;5576;50.008;10.596;2023-06-24T06:21:39;16.50;99.90
11047;DHT22;5576;50.008;10.596;2023-06-24T06:24:05;16.60;99.90
11047;DHT22;5576;50.008;10.596;2023-06-24T06:26:30;16.60;99.90
11047;DHT22;5576;50.008;10.596;2023-06-24T06:28:56;16.60;99.90
11047;DHT22;5576;50.008;10.596;2023-06-24T06:31:22;16.70;99.90
11047;DHT22;5576;50.008;10.596;2023-06-24T06:33:48;16.80;99.90
11047;DHT22;5576;50.008;10.596;2023-06-24T06:36:14;16.80;99.90
11047;DHT22;5576;50.008;10.596;2023-06-24T06:38:40;16.90;99.90
11047;DHT22;5576;50.008;10.596;2023-06-24T06:41:06;18.50;99.90
11047;DHT22;5576;50.008;10.596;2023-06-24T06:43:33;17.10;99.90
11047;DHT22;5576;50.008;10.596;2023-06-24T06:45:59;17.10;99.90
11047;DHT22;5576;50.008;10.596;2023-06-24T06:48:24;17.10;99.90
11047;DHT22;5576;50.008;10.596;2023-06-24T06:50:50;18.50;99.90
11047;DHT22;5576;50.008;10.596;2023-06-24T06:53:18;17.10;99.90
11047;DHT22;5576;50.008;10.596;2023-06-24T06:55:44;17.10;99.90
11047;DHT22;5576;50.008;10.596;2023-06-24T06:58:09;17.10;99.90
11047;DHT22;5576;50.008;10.596;2023-06-24T07:00:35;17.20;99.90
11047;DHT22;5576;50.008;10.596;2023-06-24T07:03:01;17.20;99.90
11047;DHT22;5576;50.008;10.596;2023-06-24T07:05:27;17.30;99.90
11047;DHT22;5576;50.008;10.596;2023-06-24T07:07:53;14.50;99.90
11047;DHT22;5576;50.008;10.596;2023-06-24T07:10:19;13.70;99.90
11047;DHT22;5576;50.008;10.596;2023-06-24T07:12:45;17.40;99.90
11047;DHT22;5576;50.008;10.596;2023-06-24T07:15:11;17.40;99.90
11047;DHT22;5576;50.008;10.596;2023-06-24T07:17:37;17.40;99.90
11047;DHT22;5576;50.008;10.596;2023-06-24T07:20:03;17.50;99.90
11047;DHT22;5576;50.008;10.596;2023-06-24T07:22:29;17.60;99.90
11047;DHT22;5576;50.008;10.596;2023-06-24T07:24:57;17.80;99.90
11047;DHT22;5576;50.008;10.596;2023-06-24T07:27:23;17.80;99.90
11047;DHT22;5576;50.008;10.596;2023-06-24T07:29:48;17.90;99.90
11047;DHT22;5576;50.008;10.596;2023-06-24T07:32:14;16.20;99.90
11047;DHT22;5576;50.008;10.596;2023-06-24T07:34:40;18.00;99.90
11047;DHT22;5576;50.008;10.596;2023-06-24T07:37:05;18.00;99.90
11047;DHT22;5576;50.008;10.596;2023-06-24T07:39:31;18.00;99.90
11047;DHT22;5576;50.008;10.596;2023-06-24T07:41:57;14.80;99.90
11047;DHT22;5576;50.008;10.596;2023-06-24T07:44:23;18.20;99.90
11047;DHT22;5576;50.008;10.596;2023-06-24T07:46:48;18.30;99.90
11047;DHT22;5576;50.008;10.596;2023-06-24T07:49:17;18.40;99.90
11047;DHT22;5576;50.008;10.596;2023-06-24T07:51:43;15.10;99.90
11047;DHT22;5576;50.008;10.596;2023-06-24T07:54:11;18.70;99.90
11047;DHT22;5576;50.008;10.596;2023-06-24T07:56:36;18.70;99.90
11047;DHT22;5576;50.008;10.596;2023-06-24T07:59:02;18.90;99.90
11047;DHT22;5576;50.008;10.596;2023-06-24T08:01:28;19.10;99.90
11047;DHT22;5576;50.008;10.596;2023-06-24T08:03:54;19.30;99.90
11047;DHT22;5576;50.008;10.596;2023-06-24T08:06:20;19.30;99.90
11047;DHT22;5576;50.008;10.596;2023-06-24T08:08:45;19.40;99.90
11047;DHT22;5576;50.008;10.596;2023-06-24T08:11:12;19.50;99.90
11047;DHT22;5576;50.008;10.596;2023-06-24T08:13:38;19.80;99.90
11047;DHT22;5576;50.008;10.596;2023-06-24T08:16:04;17.70;99.90
11047;DHT22;5576;50.008;10.596;2023-06-24T08:18:30;19.90;99.90
11047;DHT22;5576;50.008;10.596;2023-06-24T08:20:55;17.30;99.90
11047;DHT22;5576;50.008;10.596;2023-06-24T08:25:47;20.60;99.90
11047;DHT22;5576;50.008;10.596;2023-06-24T08:28:13;20.30;99.90
11047;DHT22;5576;50.008;10.596;2023-06-24T08:30:39;20.50;99.90
11047;DHT22;5576;50.008;10.596;2023-06-24T08:33:04;20.60;99.90
11047;DHT22;5576;50.008;10.596;2023-06-24T08:35:30;23.50;99.90
11047;DHT22;5576;50.008;10.596;2023-06-24T08:37:56;20.80;99.90
11047;DHT22;5576;50.008;10.596;2023-06-24T08:40:21;18.20;99.90
11047;DHT22;5576;50.008;10.596;2023-06-24T08:42:47;23.20;99.90
11047;DHT22;5576;50.008;10.596;2023-06-24T08:45:13;21.10;99.90
11047;DHT22;5576;50.008;10.596;2023-06-24T08:47:40;24.70;99.90
11047;DHT22;5576;50.008;10.596;2023-06-24T08:50:11;21.20;99.90
11047;DHT22;5576;50.008;10.596;2023-06-24T08:52:42;21.30;99.90
11047;DHT22;5576;50.008;10.596;2023-06-24T08:55:12;21.40;99.90
11047;DHT22;5576;50.008;10.596;2023-06-24T08:57:39;21.50;99.90
11047;DHT22;5576;50.008;10.596;2023-06-24T09:00:06;21.50;99.90
11047;DHT22;5576;50.008;10.596;2023-06-24T09:02:36;24.10;99.90
11047;DHT22;5576;50.008;10.596;2023-06-24T09:05:05;21.60;99.90
11047;DHT22;5576;50.008;10.596;2023-06-24T09:07:31;21.70;99.90
11047;DHT22;5576;50.008;10.596;2023-06-24T09:09:57;21.80;99.90
11047;DHT22;5576;50.008;10.596;2023-06-24T09:12:25;21.80;99.90
11047;DHT22;5576;50.008;10.596;2023-06-24T09:14:52;22.00;99.90
11047;DHT22;5576;50.008;10.596;2023-06-24T09:17:19;22.00;99.90
11047;DHT22;5576;50.008;10.596;2023-06-24T09:19:48;22.10;99.90
11047;DHT22;5576;50.008;10.596;2023-06-24T09:22:14;22.20;99.90
11047;DHT22;5576;50.008;10.596;2023-06-24T09:24:45;22.40;99.90
11047;DHT22;5576;50.008;10.596;2023-06-24T09:27:13;22.50;99.90
11047;DHT22;5576;50.008;10.596;2023-06-24T09:29:41;22.70;99.90
11047;DHT22;5576;50.008;10.596;2023-06-24T09:32:07;19.70;99.90
11047;DHT22;5576;50.008;10.596;2023-06-24T09:34:34;22.90;99.90
11047;DHT22;5576;50.008;10.596;2023-06-24T09:37:00;22.90;99.90
11047;DHT22;5576;50.008;10.596;2023-06-24T09:39:27;23.00;99.90
11047;DHT22;5576;50.008;10.596;2023-06-24T09:44:23;23.20;99.90
11047;DHT22;5576;50.008;10.596;2023-06-24T09:46:48;23.30;99.90
11047;DHT22;5576;50.008;10.596;2023-06-24T09:49:14;23.40;99.90
11047;DHT22;5576;50.008;10.596;2023-06-24T09:51:45;23.60;99.90
11047;DHT22;5576;50.008;10.596;2023-06-24T09:54:12;23.70;99.90
11047;DHT22;5576;50.008;10.596;2023-06-24T09:56:43;23.70;99.90
11047;DHT22;5576;50.008;10.596;2023-06-24T09:59:12;23.80;99.90
11047;DHT22;5576;50.008;10.596;2023-06-24T10:01:39;22.50;99.90
11047;DHT22;5576;50.008;10.596;2023-06-24T10:04:06;24.00;99.90
11047;DHT22;5576;50.008;10.596;2023-06-24T10:06:34;24.10;99.90
11047;DHT22;5576;50.008;10.596;2023-06-24T10:09:01;23.90;99.90
11047;DHT22;5576;50.008;10.596;2023-06-24T10:11:27;23.80;99.90
11047;DHT22;5576;50.008;10.596;2023-06-24T10:13:53;24.20;99.90
11047;DHT22;5576;50.008;10.596;2023-06-24T10:16:19;24.10;99.90
11047;DHT22;5576;50.008;10.596;2023-06-24T10:18:45;23.30;99.90
11047;DHT22;5576;50.008;10.596;2023-06-24T10:21:12;24.30;99.90
11047;DHT22;5576;50.008;10.596;2023-06-24T10:23:42;24.20;99.90
11047;DHT22;5576;50.008;10.596;2023-06-24T10:26:36;24.20;99.90
11047;DHT22;5576;50.008;10.596;2023-06-24T10:34:33;24.50;99.90
11047;DHT22;5576;50.008;10.596;2023-06-24T10:37:01;26.20;99.90
11047;DHT22;5576;50.008;10.596;2023-06-24T10:44:51;24.80;99.90
11047;DHT22;5576;50.008;10.596;2023-06-24T10:47:17;24.80;99.90
11047;DHT22;5576;50.008;10.596;2023-06-24T10:49:45;24.90;99.90
11047;DHT22;5576;50.008;10.596;2023-06-24T10:52:12;23.90;99.90
11047;DHT22;5576;50.008;10.596;2023-06-24T10:54:39;25.20;99.90
11047;DHT22;5576;50.008;10.596;2023-06-24T10:57:05;25.30;99.90
11047;DHT22;5576;50.008;10.596;2023-06-24T10:59:35;25.20;99.90
11047;DHT22;5576;50.008;10.596;2023-06-24T11:02:01;24.90;99.90
11047;DHT22;5576;50.008;10.596;2023-06-24T11:04:27;24.70;99.90
11047;DHT22;5576;50.008;10.596;2023-06-24T11:07:01;24.70;99.90
11047;DHT22;5576;50.008;10.596;2023-06-24T11:09:27;24.80;99.90
11047;DHT22;5576;50.008;10.596;2023-06-24T11:11:53;24.90;99.90
11047;DHT22;5576;50.008;10.596;2023-06-24T11:14:20;25.10;99.90
11047;DHT22;5576;50.008;10.596;2023-06-24T11:16:46;25.20;99.90
11047;DHT22;5576;50.008;10.596;2023-06-24T11:19:12;25.30;99.90
11047;DHT22;5576;50.008;10.596;2023-06-24T11:21:37;25.50;99.90
11047;DHT22;5576;50.008;10.596;2023-06-24T11:24:04;25.00;99.90
11047;DHT22;5576;50.008;10.596;2023-06-24T11:26:29;25.60;99.90
11047;DHT22;5576;50.008;10.596;2023-06-24T11:28:55;25.90;99.90
11047;DHT22;5576;50.008;10.596;2023-06-24T11:31:28;26.10;99.90
11047;DHT22;5576;50.008;10.596;2023-06-24T11:33:58;27.50;99.90
11047;DHT22;5576;50.008;10.596;2023-06-24T11:36:24;26.20;99.90
11047;DHT22;5576;50.008;10.596;2023-06-24T11:38:49;26.40;99.90
11047;DHT22;5576;50.008;10.596;2023-06-24T11:41:16;26.50;99.90
11047;DHT22;5576;50.008;10.596;2023-06-24T11:43:45;26.70;99.90
11047;DHT22;5576;50.008;10.596;2023-06-24T11:48:52;26.70;99.90
11047;DHT22;5576;50.008;10.596;2023-06-24T11:51:18;26.70;99.90
11047;DHT22;5576;50.008;10.596;2023-06-24T11:53:45;27.00;99.90
11047;DHT22;5576;50.008;10.596;2023-06-24T11:56:12;27.00;99.90
11047;DHT22;5576;50.008;10.596;2023-06-24T11:58:38;27.00;99.90
11047;DHT22;5576;50.008;10.596;2023-06-24T12:01:06;26.90;99.90
11047;DHT22;5576;50.008;10.596;2023-06-24T12:03:32;26.50;99.90
11047;DHT22;5576;50.008;10.596;2023-06-24T12:05:59;26.50;99.90
11047;DHT22;5576;50.008;10.596;2023-06-24T12:08:25;26.40;99.90
11047;DHT22;5576;50.008;10.596;2023-06-24T12:10:52;26.50;99.90
11047;DHT22;5576;50.008;10.596;2023-06-24T12:13:18;26.80;99.90
11047;DHT22;5576;50.008;10.596;2023-06-24T12:15:43;27.20;99.90
11047;DHT22;5576;50.008;10.596;2023-06-24T12:18:11;27.40;99.90
11047;DHT22;5576;50.008;10.596;2023-06-24T12:20:37;27.80;99.90
11047;DHT22;5576;50.008;10.596;2023-06-24T12:23:03;26.80;99.90
11047;DHT22;5576;50.008;10.596;2023-06-24T12:25:29;23.30;99.90
11047;DHT22;5576;50.008;10.596;2023-06-24T12:27:55;24.60;99.90
11047;DHT22;5576;50.008;10.596;2023-06-24T12:30:21;23.90;99.90
11047;DHT22;5576;50.008;10.596;2023-06-24T12:32:49;27.00;99.90
11047;DHT22;5576;50.008;10.596;2023-06-24T12:35:15;27.20;99.90
11047;DHT22;5576;50.008;10.596;2023-06-24T12:37:41;30.90;99.90
11047;DHT22;5576;50.008;10.596;2023-06-24T12:40:07;24.60;99.90
11047;DHT22;5576;50.008;10.596;2023-06-24T12:42:33;27.50;99.90
11047;DHT22;5576;50.008;10.596;2023-06-24T12:45:00;27.70;99.90
11047;DHT22;5576;50.008;10.596;2023-06-24T12:47:26;27.80;99.90
11047;DHT22;5576;50.008;10.596;2023-06-24T12:49:51;27.90;99.90
11047;DHT22;5576;50.008;10.596;2023-06-24T12:52:18;27.80;99.90
11047;DHT22;5576;50.008;10.596;2023-06-24T12:54:44;27.90;99.90
11047;DHT22;5576;50.008;10.596;2023-06-24T12:57:10;28.00;99.90
11047;DHT22;5576;50.008;10.596;2023-06-24T12:59:36;28.20;99.90
11047;DHT22;5576;50.008;10.596;2023-06-24T13:02:02;28.30;99.90
11047;DHT22;5576;50.008;10.596;2023-06-24T13:04:28;28.40;99.90
11047;DHT22;5576;50.008;10.596;2023-06-24T13:06:54;28.40;99.90
11047;DHT22;5576;50.008;10.596;2023-06-24T13:09:20;28.40;99.90
11047;DHT22;5576;50.008;10.596;2023-06-24T13:11:46;28.50;99.90
11047;DHT22;5576;50.008;10.596;2023-06-24T13:14:13;29.10;99.90
11047;DHT22;5576;50.008;10.596;2023-06-24T13:16:39;31.30;99.90
11047;DHT22;5576;50.008;10.596;2023-06-24T13:19:05;28.20;99.90
11047;DHT22;5576;50.008;10.596;2023-06-24T13:21:31;28.40;99.90
11047;DHT22;5576;50.008;10.596;2023-06-24T13:23:56;28.10;99.90
11047;DHT22;5576;50.008;10.596;2023-06-24T13:26:22;28.00;99.90
11047;DHT22;5576;50.008;10.596;2023-06-24T13:28:50;27.70;99.90
11047;DHT22;5576;50.008;10.596;2023-06-24T13:31:18;28.60;99.90
11047;DHT22;5576;50.008;10.596;2023-06-24T13:33:44;27.30;99.90
11047;DHT22;5576;50.008;10.596;2023-06-24T13:36:25;27.30;99.90
11047;DHT22;5576;50.008;10.596;2023-06-24T13:38:53;28.40;99.90
11047;DHT22;5576;50.008;10.596;2023-06-24T13:44:54;27.30;99.90
11047;DHT22;5576;50.008;10.596;2023-06-24T13:47:20;27.30;99.90
11047;DHT22;5576;50.008;10.596;2023-06-24T13:49:45;27.10;99.90
11047;DHT22;5576;50.008;10.596;2023-06-24T13:52:11;26.90;99.90
11047;DHT22;5576;50.008;10.596;2023-06-24T13:54:37;27.00;99.90
11047;DHT22;5576;50.008;10.596;2023-06-24T13:57:03;27.20;99.90
11047;DHT22;5576;50.008;10.596;2023-06-24T13:59:28;27.60;99.90
11047;DHT22;5576;50.008;10.596;2023-06-24T14:01:54;27.90;99.90
11047;DHT22;5576;50.008;10.596;2023-06-24T14:04:20;28.20;99.90
11047;DHT22;5576;50.008;10.596;2023-06-24T14:06:46;27.20;99.90
11047;DHT22;5576;50.008;10.596;2023-06-24T14:09:12;28.40;99.90
11047;DHT22;5576;50.008;10.596;2023-06-24T14:11:38;28.90;99.90
11047;DHT22;5576;50.008;10.596;2023-06-24T14:14:04;28.70;99.90
11047;DHT22;5576;50.008;10.596;2023-06-24T14:16:30;28.70;99.90
11047;DHT22;5576;50.008;10.596;2023-06-24T14:18:56;28.90;99.90
11047;DHT22;5576;50.008;10.596;2023-06-24T14:21:22;28.90;99.90
11047;DHT22;5576;50.008;10.596;2023-06-24T14:23:48;29.00;99.90
11047;DHT22;5576;50.008;10.596;2023-06-24T14:26:13;29.00;99.90
11047;DHT22;5576;50.008;10.596;2023-06-24T14:28:39;29.10;99.90
11047;DHT22;5576;50.008;10.596;2023-06-24T14:31:08;29.20;99.90
11047;DHT22;5576;50.008;10.596;2023-06-24T14:33:34;29.50;99.80
11047;DHT22;5576;50.008;10.596;2023-06-24T14:36:00;29.50;99.90
11047;DHT22;5576;50.008;10.596;2023-06-24T14:38:25;29.60;99.90
11047;DHT22;5576;50.008;10.596;2023-06-24T14:40:51;29.00;98.70
11047;DHT22;5576;50.008;10.596;2023-06-24T14:43:17;29.60;99.20
11047;DHT22;5576;50.008;10.596;2023-06-24T14:45:44;29.30;98.50
11047;DHT22;5576;50.008;10.596;2023-06-24T14:48:10;30.60;99.90
11047;DHT22;5576;50.008;10.596;2023-06-24T14:50:35;29.20;99.90
11047;DHT22;5576;50.008;10.596;2023-06-24T14:53:02;29.30;99.90
11047;DHT22;5576;50.008;10.596;2023-06-24T14:55:28;29.10;99.90
11047;DHT22;5576;50.008;10.596;2023-06-24T14:57:54;29.20;99.80
11047;DHT22;5576;50.008;10.596;2023-06-24T15:00:20;29.20;99.90
11047;DHT22;5576;50.008;10.596;2023-06-24T15:02:46;29.40;99.90
11047;DHT22;5576;50.008;10.596;2023-06-24T15:05:11;29.60;98.80
11047;DHT22;5576;50.008;10.596;2023-06-24T15:07:37;29.60;99.10
11047;DHT22;5576;50.008;10.596;2023-06-24T15:10:04;29.60;99.10
11047;DHT22;5576;50.008;10.596;2023-06-24T15:12:30;29.60;98.20
11047;DHT22;5576;50.008;10.596;2023-06-24T15:14:56;28.40;98.50
11047;DHT22;5576;50.008;10.596;2023-06-24T15:17:22;29.50;97.90
11047;DHT22;5576;50.008;10.596;2023-06-24T15:19:48;29.60;98.80
11047;DHT22;5576;50.008;10.596;2023-06-24T15:22:14;29.80;98.40
11047;DHT22;5576;50.008;10.596;2023-06-24T15:24:41;30.00;97.50
11047;DHT22;5576;50.008;10.596;2023-06-24T15:27:07;29.80;97.80
11047;DHT22;5576;50.008;10.596;2023-06-24T15:29:32;29.90;98.90
11047;DHT22;5576;50.008;10.596;2023-06-24T15:31:58;30.00;98.20
11047;DHT22;5576;50.008;10.596;2023-06-24T15:34:24;30.10;99.40
11047;DHT22;5576;50.008;10.596;2023-06-24T15:36:51;30.60;99.20
11047;DHT22;5576;50.008;10.596;2023-06-24T15:39:17;30.20;98.50
11047;DHT22;5576;50.008;10.596;2023-06-24T15:41:46;30.10;97.30
11047;DHT22;5576;50.008;10.596;2023-06-24T15:44:15;30.30;97.70
11047;DHT22;5576;50.008;10.596;2023-06-24T15:46:41;30.30;98.00
11047;DHT22;5576;50.008;10.596;2023-06-24T15:49:10;30.20;99.10
11047;DHT22;5576;50.008;10.596;2023-06-24T15:51:36;30.00;98.40
11047;DHT22;5576;50.008;10.596;2023-06-24T15:54:02;29.20;99.00
11047;DHT22;5576;50.008;10.596;2023-06-24T15:56:27;29.60;99.40
11047;DHT22;5576;50.008;10.596;2023-06-24T15:58:53;28.90;99.70